x

Sentry Shoal (46131) Wave Buoy

10:00 - Tue 24th May 2016 All times are PDT. -7 hours from GMT.

  • Sig Wave height 0.7ft
  • Peak Period 2s
  • Wind
    9mph, 11mph gusts
  • Sea Temp 59°f
  • Luft Temp 57°f
  • Sea Pressure 1014.8mb
  • Sentry Shoal
  • Sentry Shoal

More Historic Weather Station data

Upgrade to MSW Pro to gain access to the past 30 days of data for over 8000 Wavebouys and Weather Stations around the globe.

Join Pro

Comparision Forecast

View Surf forecast
   
Di 05/24 10:00 0.7ft 2s 9 11 mph 1014.8mb 59f 57f
9:00 0.7ft 3s 9 11 mph 1014.7mb 59f 56f
8:00 0.7ft 3s 9 11 mph 1014.5mb 59f 55f
7:00 1ft 2s 11 13 mph 1014.2mb 59f 55f
6:00 1ft 3s 11 13 mph 1014mb 58f 55f
5:00 1ft 3s 9 13 mph 1013.9mb 59f 55f
4:00 1.3ft 3s 16 18 mph 1013.7mb 59f 55f
3:00 1.3ft 3s 16 18 mph 1013.7mb 59f 56f
2:00 1ft 3s 13 16 mph 1013.7mb 59f 57f
1:00 1.3ft 3s 13 16 mph 1013.6mb 59f 58f
12:00 1.3ft 3s 13 16 mph 1013.6mb 59f 58f
Mo 05/23 11:00 1.3ft 3s 13
mph
1013.3mb 59f 59f
10:00 1ft 3s 13 16 mph 1012.9mb 60f 60f
9:00 1ft 3s 13 16 mph 1012.7mb 60f 60f
8:00 1ft 2s 16 18 mph 1012.4mb 60f 60f
7:00 0.7ft 2s 11
mph
1012.3mb 60f 61f
6:00 0.3ft 2s 9 11 mph 1012.3mb 61f 62f
5:00 0.3ft 3s 4 7 mph 1012.5mb 61f 62f
4:00 0.3ft 2s 4 7 mph 1012.8mb 61f 61f
3:00 0.3ft 2s 9
mph
1012.9mb 61f 61f
2:00 0.3ft 2s 4
mph
1012.9mb 61f 61f
1:00 0.3ft 3s 2 4 mph 1012.8mb 61f 61f
12:00 0.7ft 3s 2 4 mph 1012.8mb 60f 60f
11:00 1ft 3s 7 11 mph 1012.7mb 59f 59f
10:00 1ft 3s 11 13 mph 1012.7mb 59f 58f
9:00 0.7ft 3s 9 13 mph 1012.7mb 59f 57f
8:00 0.7ft 3s 7 9 mph 1012.6mb 58f 56f
7:00 1ft 3s 9 13 mph 1012.3mb 58f 57f
6:00 0.7ft 2s 11 13 mph 1011.9mb 58f 57f
5:00 0.7ft 3s 4 7 mph 1011.7mb 58f 56f
4:00 0.7ft 3s 7 9 mph 1011.5mb 58f 57f
3:00 0.7ft 3s 7 9 mph 1011.7mb 57f 57f
2:00 1ft 3s 7 9 mph 1011.6mb 58f 57f
1:00 1ft 3s 13 18 mph 1011.3mb 58f 58f
12:00 0.7ft 3s 11 13 mph 1011.4mb 58f 59f
So 05/22 11:00 0.3ft 3s 11 13 mph 1011.2mb 58f 60f
10:00 0.7ft 3s 7 9 mph 1010.9mb 58f 58f
9:00 0.7ft 3s  -  2 mph 1010.6mb 59f 60f
8:00 1ft 3s 4
mph
1010.5mb 59f 61f
7:00 1ft 2s 9
mph
1010.3mb 59f 61f
6:00 1ft 2s 9
mph
1010.1mb 59f 61f
5:00 1ft 2s 9 11 mph 1010.3mb 59f 61f
4:00 1.3ft 2s 13
mph
1010.4mb 59f 61f
3:00 1ft 2s 13 16 mph 1010.5mb 59f 60f
2:00 1ft 2s 11 13 mph 1010.8mb 58f 60f
1:00 0.7ft 2s 11
mph
1010.8mb 58f 59f
12:00 0.3ft 2s 9
mph
1010.9mb 58f 58f
11:00 0.3ft 2s 4 7 mph 1010.9mb 58f 58f
10:00 0.7ft 2s 4
mph
1011mb 57f 57f
9:00 0.7ft 2s 2 4 mph 1010.8mb 57f 56f
8:00 1ft 3s 4 7 mph 1010.6mb 56f 55f
7:00 1ft 3s 7
mph
1010.4mb 56f 54f
6:00 1.3ft 3s 2 4 mph 1009.9mb 57f 55f
5:00 1.6ft 3s 9 11 mph 1009.5mb 57f 57f
4:00 1.6ft 4s 2 4 mph 1009.5mb 57f 55f
3:00 2ft 4s 16 18 mph 1009.1mb 57f 57f
2:00 2.5ft 5s 16 18 mph 1008.6mb 57f 58f
1:00 3ft 5s 11 13 mph 1008.5mb 57f 58f
12:00 3.5ft 5s 18 22 mph 1008.3mb 57f 58f
Sa 05/21 11:00 3.5ft 4s 18 22 mph 1008.7mb 58f 59f
10:00 2.5ft 4s 20 25 mph 1007.9mb 58f 59f
9:00 1.6ft 3s 18 22 mph 1007.2mb 58f 60f
8:00 1.3ft 3s 13 18 mph 1006.9mb 58f 60f
7:00 1.6ft 3s 13 16 mph 1006.3mb 58f 60f
6:00 2ft 3s 18 20 mph 1005.9mb 58f 60f
5:00 1.3ft 3s 18 20 mph 1006.2mb 59f 60f
4:00 1ft 2s 13 16 mph 1006.4mb 59f 60f
3:00 0.7ft 2s 13 16 mph 1006.5mb 59f 60f
2:00 0.3ft 3s 11 13 mph 1006.6mb 60f 60f
1:00 0.3ft 2s 9
mph
1006.6mb 60f 60f
12:00 0.3ft 2s 4
mph
1007mb 60f 61f
11:00 0.3ft 2s 2 4 mph 1007.1mb 59f 60f
10:00 0.3ft 2s 4
mph
1007.1mb 58f 59f
9:00 0.7ft 3s 9 11 mph 1007.3mb 58f 58f
8:00 1ft 3s 13 16 mph 1007.2mb 58f 56f
7:00 1ft 2s 13
mph
1007.1mb 57f 55f
6:00 1ft 2s 16 18 mph 1006.9mb 58f 55f
5:00 1ft 2s 16 18 mph 1007.2mb 58f 56f
4:00 1ft 3s 16 18 mph 1007.5mb 58f 56f
3:00 1.3ft 2s 13 16 mph 1007.8mb 58f 57f
2:00 1ft 2s 13 18 mph 1008mb 58f 57f
1:00 0.3ft 2s 13 16 mph 1008mb 58f 57f
12:00 0.3ft 6s 11
mph
1008.5mb 59f 58f
Fr 05/20 11:00 0.3ft 6s 2 4 mph 1008.7mb 59f 58f
10:00 0.3ft 2s 4
mph
1008.4mb 59f 59f
9:00 0.3ft 3s 4 7 mph 1008.5mb 60f 60f
8:00 0.3ft 3s 9 13 mph 1008.7mb 61f 62f
7:00 0.3ft 3s 4
mph
1008.7mb 61f 63f